Time;durP1;ratioP1;P1;durP2;ratioP2;P2;SDS_P1;SDS_P2;PMS_P1;PMS_P2;Temp;Humidity;BMP_temperature;BMP_pressure;BME280_temperature;BME280_humidity;BME280_pressure;Samples;Min_cycle;Max_cycle;Signal;HPM_P1;HPM_P2
2021/10/04 00:00:38;;;;;;;6.82;1.20;;;;;;;11.56;100.00;100464.91;4787219;30;20039;-76
2021/10/04 00:03:03;;;;;;;8.07;1.30;;;;;;;11.58;100.00;100469.03;4779284;30;20125;-77
2021/10/04 00:05:29;;;;;;;8.82;1.38;;;;;;;11.51;100.00;100468.22;4779406;29;20122;-77
2021/10/04 00:07:54;;;;;;;4.85;1.10;;;;;;;11.56;100.00;100486.47;4765074;30;20482;-77
2021/10/04 00:10:21;;;;;;;7.68;1.50;;;;;;;11.54;100.00;100483.97;4784589;30;20435;-77
2021/10/04 00:12:48;;;;;;;6.47;1.40;;;;;;;11.53;100.00;100488.53;4771882;30;20062;-77
2021/10/04 00:15:16;;;;;;;10.63;1.30;;;;;;;11.50;100.00;100488.97;4787402;30;20123;-77
2021/10/04 00:17:42;;;;;;;8.63;1.60;;;;;;;11.53;100.00;100501.19;4772442;30;20067;-77
2021/10/04 00:20:10;;;;;;;3.08;1.00;;;;;;;11.54;100.00;100510.91;4769030;30;20489;-77
2021/10/04 00:22:38;;;;;;;6.93;1.13;;;;;;;11.54;100.00;100516.31;4771327;30;20043;-77
2021/10/04 00:25:05;;;;;;;8.57;1.67;;;;;;;11.54;100.00;100521.69;4759470;30;20035;-77
2021/10/04 00:27:31;;;;;;;8.27;1.02;;;;;;;11.51;100.00;100516.72;4772372;30;20470;-77
2021/10/04 00:29:57;;;;;;;9.18;1.40;;;;;;;11.55;100.00;100525.22;4765482;30;20044;-77
2021/10/04 00:32:22;;;;;;;6.63;1.20;;;;;;;11.52;100.00;100529.16;4773079;30;20124;-77
2021/10/04 00:34:49;;;;;;;6.20;1.23;;;;;;;11.54;100.00;100545.94;4787603;30;20474;-78
2021/10/04 00:37:14;;;;;;;8.93;1.52;;;;;;;11.55;100.00;100550.28;4786692;30;20054;-76
2021/10/04 00:39:40;;;;;;;4.07;1.00;;;;;;;11.53;100.00;100544.31;4762559;30;20032;-78
2021/10/04 00:42:05;;;;;;;6.85;1.00;;;;;;;11.55;100.00;100557.56;4791753;30;20390;-77
2021/10/04 00:44:31;;;;;;;4.55;1.00;;;;;;;11.49;100.00;100540.38;4791956;30;20055;-77
2021/10/04 00:46:57;;;;;;;6.40;1.17;;;;;;;11.53;100.00;100555.09;4775571;30;20035;-77
2021/10/04 00:49:23;;;;;;;8.65;1.35;;;;;;;11.53;100.00;100560.47;4783508;30;20111;-77
2021/10/04 00:51:48;;;;;;;7.10;1.20;;;;;;;11.50;100.00;100560.88;4757081;30;20048;-77
2021/10/04 00:54:15;;;;;;;5.57;1.00;;;;;;;11.52;100.00;100574.97;4787902;30;20077;-77
2021/10/04 00:56:41;;;;;;;9.82;1.15;;;;;;;11.49;100.00;100575.41;4774429;30;20463;-77
2021/10/04 00:59:06;;;;;;;9.02;1.38;;;;;;;11.50;100.00;100574.38;4770101;30;20139;-78
2021/10/04 01:01:32;;;;;;;4.32;1.05;;;;;;;11.48;100.00;100571.03;4787181;30;20540;-77
2021/10/04 01:04:00;;;;;;;8.70;1.27;;;;;;;11.40;100.00;100573.97;4786006;30;20050;-77
2021/10/04 01:06:27;;;;;;;9.93;1.20;;;;;;;11.39;100.00;100578.53;4767518;30;20066;-77
2021/10/04 01:08:53;;;;;;;7.13;1.38;;;;;;;11.40;100.00;100576.66;4783303;30;20035;-77
2021/10/04 01:11:19;;;;;;;8.02;1.15;;;;;;;11.42;100.00;100590.72;4776864;30;20045;-77
2021/10/04 01:13:46;;;;;;;7.50;0.90;;;;;;;11.42;100.00;100599.66;4771094;30;20497;-77
2021/10/04 01:16:11;;;;;;;8.05;1.50;;;;;;;11.43;100.00;100590.53;4770810;30;20039;-77
2021/10/04 01:18:37;;;;;;;6.60;1.00;;;;;;;11.40;100.00;100590.97;4769603;30;20058;-77
2021/10/04 01:21:03;;;;;;;12.65;1.13;;;;;;;11.37;100.00;100583.28;4787601;30;20467;-77
2021/10/04 01:23:29;;;;;;;7.93;1.10;;;;;;;11.29;100.00;100578.97;4786291;30;20097;-77
2021/10/04 01:25:59;;;;;;;9.68;1.33;;;;;;;11.36;100.00;100588.91;4771055;30;20043;-77
2021/10/04 01:28:26;;;;;;;7.32;1.30;;;;;;;11.37;100.00;100604.84;4786521;30;20031;-77
2021/10/04 01:30:53;;;;;;;7.53;1.83;;;;;;;11.34;100.00;100605.25;4786451;30;20101;-77
2021/10/04 01:33:19;;;;;;;12.18;1.58;;;;;;;11.34;100.00;100613.34;4781840;29;20136;-76
2021/10/04 01:35:44;;;;;;;8.00;1.63;;;;;;;11.24;100.00;100605.69;4785176;30;20042;-77
2021/10/04 01:38:10;;;;;;;10.93;1.48;;;;;;;11.29;100.00;100619.38;4786645;30;20047;-77
2021/10/04 01:40:36;;;;;;;13.77;1.80;;;;;;;11.28;100.00;100628.47;4755180;30;20036;-77
2021/10/04 01:43:01;;;;;;;6.07;1.00;;;;;;;11.20;100.00;100612.53;4785355;30;20705;-77
2021/10/04 01:45:29;;;;;;;9.73;1.50;;;;;;;11.27;100.00;100628.69;4785580;30;20121;-77
2021/10/04 01:48:00;;;;;;;8.68;1.38;;;;;;;11.25;100.00;100636.13;4767802;30;20122;-77
2021/10/04 01:50:29;;;;;;;6.43;1.30;;;;;;;11.18;100.00;100619.97;4788712;29;20484;-77
2021/10/04 01:52:54;;;;;;;11.40;1.50;;;;;;;11.20;100.00;100628.69;4778646;30;20109;-77
2021/10/04 01:55:20;;;;;;;11.63;1.45;;;;;;;11.15;100.00;100624.94;4744836;30;20039;-77
2021/10/04 01:57:45;;;;;;;10.25;1.50;;;;;;;11.15;100.00;100623.09;4770300;30;20039;-77
2021/10/04 02:00:14;;;;;;;10.73;1.20;;;;;;;11.09;100.00;100615.81;4770165;30;20057;-77
2021/10/04 02:02:41;;;;;;;11.05;1.25;;;;;;;11.13;100.00;100633.25;4786102;30;20110;-77
2021/10/04 02:05:07;;;;;;;8.15;1.80;;;;;;;11.15;100.00;100630.34;4789380;30;20450;-77
2021/10/04 02:07:34;;;;;;;5.25;1.20;;;;;;;11.10;100.00;100630.97;4773031;30;20047;-77
2021/10/04 02:10:00;;;;;;;8.93;1.30;;;;;;;11.10;100.00;100633.66;4775092;30;20490;-77
2021/10/04 02:12:25;;;;;;;9.50;1.30;;;;;;;10.99;100.00;100620.78;4760020;30;20067;-77
2021/10/04 02:14:51;;;;;;;7.72;1.10;;;;;;;11.10;100.00;100643.59;4790494;30;20031;-77
2021/10/04 02:17:16;;;;;;;8.90;1.20;;;;;;;11.10;100.00;100657.06;4758265;30;20051;-77
2021/10/04 02:19:42;;;;;;;10.20;1.40;;;;;;;11.10;100.00;100647.13;4785155;30;20043;-77
2021/10/04 02:22:07;;;;;;;11.35;1.40;;;;;;;11.09;100.00;100653.53;4784986;30;20142;-77
2021/10/04 02:24:32;;;;;;;15.65;1.42;;;;;;;11.11;100.00;100650.63;4773790;30;20058;-77
2021/10/04 02:26:58;;;;;;;7.55;1.35;;;;;;;11.15;100.00;100657.25;4770643;30;20058;-77
2021/10/04 02:29:23;;;;;;;13.93;1.45;;;;;;;11.02;100.00;100642.75;4786316;30;20490;-77
2021/10/04 02:31:49;;;;;;;10.57;1.50;;;;;;;11.17;100.00;100663.28;4771540;30;20042;-77
2021/10/04 02:34:14;;;;;;;10.18;1.38;;;;;;;11.16;100.00;100667.00;4769153;30;20043;-77
2021/10/04 02:36:40;;;;;;;15.55;1.88;;;;;;;11.17;100.00;100680.28;4769919;30;20059;-76
2021/10/04 02:39:05;;;;;;;10.48;1.27;;;;;;;11.13;100.00;100681.72;4785815;30;20039;-77
2021/10/04 02:41:32;;;;;;;11.18;1.50;;;;;;;11.11;100.00;100675.69;4786650;30;20078;-77
2021/10/04 02:43:57;;;;;;;13.35;1.42;;;;;;;11.16;100.00;100672.38;4791573;30;20465;-77
2021/10/04 02:46:23;;;;;;;11.63;2.13;;;;;;;11.20;100.00;100689.81;4768628;30;20039;-77
2021/10/04 02:48:48;;;;;;;17.52;2.58;;;;;;;11.19;100.00;100678.22;4754850;30;20023;-77
2021/10/04 02:51:14;;;;;;;14.73;1.73;;;;;;;11.17;100.00;100682.13;4768573;30;20038;-77
2021/10/04 02:53:39;;;;;;;12.30;1.30;;;;;;;11.20;100.00;100679.84;4784980;30;20101;-77
2021/10/04 02:56:05;;;;;;;13.82;1.77;;;;;;;11.06;100.00;100659.34;4784554;30;20490;-77
2021/10/04 02:58:31;;;;;;;16.05;1.50;;;;;;;11.21;100.00;100694.97;4770182;30;20070;-77
2021/10/04 03:00:57;;;;;;;10.00;1.35;;;;;;;11.18;100.00;100694.56;4778135;29;20063;-77
2021/10/04 03:03:22;;;;;;;9.88;1.63;;;;;;;11.21;100.00;100702.22;4767043;30;20118;-77
2021/10/04 03:05:48;;;;;;;9.07;1.50;;;;;;;11.14;100.00;100694.16;4784341;29;20047;-77
2021/10/04 03:08:13;;;;;;;17.13;1.55;;;;;;;11.13;100.00;100699.75;4768103;30;20043;-77
2021/10/04 03:10:39;;;;;;;10.20;2.05;;;;;;;11.15;100.00;100705.75;4776428;30;20130;-77
2021/10/04 03:13:05;;;;;;;11.90;1.80;;;;;;;11.21;100.00;100715.69;4771252;30;20027;-77
2021/10/04 03:15:31;;;;;;;13.05;2.15;;;;;;;11.22;100.00;100718.16;4771926;30;20123;-77
2021/10/04 03:17:56;;;;;;;15.05;1.90;;;;;;;11.17;100.00;100709.91;4755841;30;20098;-77
2021/10/04 03:20:22;;;;;;;19.20;2.17;;;;;;;11.21;100.00;100719.22;4772322;30;20459;-77
2021/10/04 03:22:48;;;;;;;8.52;1.70;;;;;;;11.27;100.00;100731.88;4772133;30;20074;-77
2021/10/04 03:25:13;;;;;;;14.77;1.70;;;;;;;11.23;100.00;100719.84;4771870;30;20066;-77
2021/10/04 03:27:40;;;;;;;17.73;1.67;;;;;;;11.26;100.00;100734.78;4756016;30;20036;-77
2021/10/04 03:30:06;;;;;;;13.43;2.22;;;;;;;11.27;100.00;100733.72;4756106;30;20028;-77
2021/10/04 03:32:31;;;;;;;18.58;2.40;;;;;;;11.20;100.00;100731.03;4771810;30;20042;-77
2021/10/04 03:34:58;;;;;;;10.05;1.50;;;;;;;11.28;100.00;100744.28;4771703;30;20050;-77
2021/10/04 03:37:24;;;;;;;17.95;2.10;;;;;;;11.28;100.00;100755.06;4726775;30;20040;-77
2021/10/04 03:39:49;;;;;;;13.63;2.13;;;;;;;11.24;100.00;100739.53;4777238;29;20039;-77
2021/10/04 03:42:14;;;;;;;15.52;2.63;;;;;;;11.33;100.00;100759.03;4782756;30;20066;-77
2021/10/04 03:44:40;;;;;;;14.63;2.05;;;;;;;11.30;100.00;100757.56;4791475;30;20062;-78
2021/10/04 03:47:05;;;;;;;21.42;1.92;;;;;;;11.29;100.00;100755.88;4790387;30;20040;-77
2021/10/04 03:49:32;;;;;;;17.58;2.55;;;;;;;11.30;100.00;100754.88;4759943;30;20126;-77
2021/10/04 03:51:58;;;;;;;18.17;2.00;;;;;;;11.32;100.00;100770.81;4768874;30;20035;-77
2021/10/04 03:54:24;;;;;;;19.73;2.20;;;;;;;11.32;100.00;100770.81;4765810;30;20079;-77
2021/10/04 03:56:50;;;;;;;16.50;2.00;;;;;;;11.32;100.00;100762.75;4782366;30;20408;-77
2021/10/04 03:59:15;;;;;;;20.75;2.15;;;;;;;11.31;100.00;100764.59;4773243;29;20189;-77
2021/10/04 04:01:41;;;;;;;21.45;2.53;;;;;;;11.18;100.00;100749.25;4777703;29;20207;-78
2021/10/04 04:04:07;;;;;;;22.60;2.42;;;;;;;11.22;100.00;100760.44;4800710;29;20025;-78
2021/10/04 04:06:32;;;;;;;15.10;2.55;;;;;;;11.29;100.00;100781.00;4800519;29;20037;-77
2021/10/04 04:08:59;;;;;;;19.83;2.63;;;;;;;11.32;100.00;100789.69;4810103;29;20091;-78
2021/10/04 04:11:25;;;;;;;19.13;2.38;;;;;;;11.31;100.00;100796.09;4795080;29;20458;-78
2021/10/04 04:13:52;;;;;;;19.95;2.50;;;;;;;11.24;100.00;100799.59;4810951;29;20039;-77
2021/10/04 04:16:17;;;;;;;16.30;2.83;;;;;;;11.31;100.00;100806.88;4788976;29;20066;-77
2021/10/04 04:18:43;;;;;;;21.20;3.33;;;;;;;11.38;100.00;100823.88;4776569;29;20236;-77
2021/10/04 04:21:09;;;;;;;23.33;3.55;;;;;;;11.37;100.00;100817.66;4765621;29;20030;-77
2021/10/04 04:23:35;;;;;;;17.48;2.30;;;;;;;11.44;100.00;100823.06;4790443;29;20054;-77
2021/10/04 04:26:00;;;;;;;16.13;2.60;;;;;;;11.43;100.00;100829.50;4809681;29;20462;-78
2021/10/04 04:28:26;;;;;;;19.98;2.58;;;;;;;11.45;100.00;100819.34;4771737;29;20039;-77
2021/10/04 04:30:51;;;;;;;19.73;2.92;;;;;;;11.42;100.00;100823.28;4760929;29;20062;-78
2021/10/04 04:33:16;;;;;;;24.75;3.35;;;;;;;11.44;100.00;100829.28;4783321;29;20109;-77
2021/10/04 04:35:42;;;;;;;23.08;2.83;;;;;;;11.47;100.00;100841.53;4787503;29;20046;-77
2021/10/04 04:38:07;;;;;;;22.08;2.90;;;;;;;11.41;100.00;100824.31;4777126;30;20046;-78
2021/10/04 04:40:33;;;;;;;22.20;2.92;;;;;;;11.40;100.00;100822.66;4792165;30;20391;-77
2021/10/04 04:42:58;;;;;;;21.27;3.53;;;;;;;11.43;100.00;100827.63;4796619;29;20477;-77
2021/10/04 04:45:24;;;;;;;25.23;3.22;;;;;;;11.44;100.00;100836.53;4798179;29;20107;-77
2021/10/04 04:47:51;;;;;;;17.60;2.60;;;;;;;11.51;100.00;100853.56;4800215;29;20410;-78
2021/10/04 04:50:18;;;;;;;22.45;3.17;;;;;;;11.51;100.00;100857.06;4809638;29;20027;-78
2021/10/04 04:52:43;;;;;;;23.00;2.97;;;;;;;11.49;100.00;100852.94;4775276;29;20045;-78
2021/10/04 04:55:09;;;;;;;23.83;2.80;;;;;;;11.51;100.00;100845.47;4785270;29;20363;-78
2021/10/04 04:57:36;;;;;;;20.13;2.63;;;;;;;11.50;100.00;100857.28;4785131;29;20386;-77
2021/10/04 05:00:05;;;;;;;28.90;2.90;;;;;;;11.48;100.00;100859.34;4806206;29;20378;-78
2021/10/04 05:02:35;;;;;;;20.67;2.90;;;;;;;11.49;100.00;100867.25;4801273;29;20059;-78
2021/10/04 05:05:01;;;;;;;24.02;2.67;;;;;;;11.45;100.00;100862.44;4785272;29;20062;-78
2021/10/04 05:07:26;;;;;;;28.17;3.45;;;;;;;11.48;100.00;100872.81;4803603;29;20486;-77
2021/10/04 05:09:51;;;;;;;23.50;2.80;;;;;;;11.57;100.00;100879.69;4775541;29;20054;-77
2021/10/04 05:12:17;;;;;;;21.15;3.17;;;;;;;11.60;100.00;100879.28;4804575;29;20128;-78
2021/10/04 05:14:42;;;;;;;24.40;3.10;;;;;;;11.63;100.00;100878.88;4783602;29;20078;-77
2021/10/04 05:17:09;;;;;;;22.38;3.45;;;;;;;11.63;100.00;100876.19;4797731;29;20947;-78
2021/10/04 05:19:34;;;;;;;31.73;3.38;;;;;;;11.72;100.00;100869.56;4784585;29;20054;-78
2021/10/04 05:22:00;;;;;;;25.77;3.30;;;;;;;11.64;100.00;100858.97;4790349;29;20034;-78
2021/10/04 05:24:25;;;;;;;29.30;2.90;;;;;;;11.70;100.00;100877.03;4804137;29;20031;-78
2021/10/04 05:26:51;;;;;;;29.45;3.03;;;;;;;11.70;100.00;100877.03;4800935;29;20037;-78
2021/10/04 05:29:16;;;;;;;28.25;2.88;;;;;;;11.75;100.00;100885.34;4785409;29;20091;-78
2021/10/04 05:31:41;;;;;;;28.00;3.05;;;;;;;11.73;100.00;100871.22;4799005;29;20058;-78
2021/10/04 05:34:07;;;;;;;28.38;3.33;;;;;;;11.71;100.00;100869.75;4774289;29;20039;-77
2021/10/04 05:36:32;;;;;;;25.05;3.78;;;;;;;11.75;100.00;100884.50;4804374;29;20061;-78
2021/10/04 05:39:00;;;;;;;25.42;3.38;;;;;;;11.78;100.00;100876.00;4770279;29;20451;-78
2021/10/04 05:41:25;;;;;;;26.77;3.55;;;;;;;11.77;100.00;100869.78;4789828;29;20149;-77
2021/10/04 05:43:50;;;;;;;20.98;3.08;;;;;;;11.85;100.00;100884.94;4801537;29;20122;-78
2021/10/04 05:46:17;;;;;;;35.03;3.78;;;;;;;11.84;100.00;100880.59;4770047;29;20496;-77
2021/10/04 05:48:43;;;;;;;28.90;4.10;;;;;;;11.90;100.00;100904.03;4770843;29;20043;-77
2021/10/04 05:51:09;;;;;;;28.15;3.72;;;;;;;11.86;100.00;100892.03;4769090;29;20027;-77
2021/10/04 05:53:35;;;;;;;32.83;3.63;;;;;;;11.96;100.00;100905.94;4785806;29;20130;-78
2021/10/04 05:56:01;;;;;;;26.48;3.25;;;;;;;11.98;100.00;100900.31;4798858;29;20129;-78
2021/10/04 05:58:26;;;;;;;27.75;3.78;;;;;;;12.05;100.00;100911.94;4788037;29;20039;-78
2021/10/04 06:00:52;;;;;;;25.38;3.15;;;;;;;12.07;100.00;100904.47;4773177;29;20035;-77
2021/10/04 06:03:17;;;;;;;21.23;2.72;;;;;;;12.04;100.00;100894.09;4801512;29;20447;-78
2021/10/04 06:05:42;;;;;;;26.98;3.00;;;;;;;12.08;100.00;100902.59;4803728;29;20042;-78
2021/10/04 06:08:08;;;;;;;29.70;3.42;;;;;;;12.13;100.00;100914.44;4774128;29;20361;-78
2021/10/04 06:10:33;;;;;;;27.88;3.22;;;;;;;12.06;100.00;100912.78;4800022;29;20386;-78
2021/10/04 06:13:00;;;;;;;26.35;3.42;;;;;;;12.19;100.00;100934.38;4769688;29;20527;-77
2021/10/04 06:15:25;;;;;;;28.73;3.45;;;;;;;12.17;100.00;100937.25;4798078;29;20067;-78
2021/10/04 06:17:51;;;;;;;27.50;3.70;;;;;;;12.23;100.00;100949.09;4788355;29;20109;-78
2021/10/04 06:20:18;;;;;;;28.73;4.05;;;;;;;12.20;100.00;100947.66;4804772;29;20129;-77
2021/10/04 06:22:44;;;;;;;28.48;3.22;;;;;;;12.28;100.00;100959.28;4810819;29;20046;-78
2021/10/04 06:25:14;;;;;;;21.80;3.25;;;;;;;12.30;100.00;100968.81;4810403;29;20027;-78
2021/10/04 06:27:44;;;;;;;33.70;3.67;;;;;;;12.33;100.00;100959.50;4788357;29;20042;-77
2021/10/04 06:30:10;;;;;;;28.13;3.47;;;;;;;12.28;100.00;100943.91;4788817;29;20094;-78
2021/10/04 06:32:37;;;;;;;31.45;3.47;;;;;;;12.40;100.00;100973.81;4803225;29;20035;-77
2021/10/04 06:35:02;;;;;;;27.17;3.80;;;;;;;12.44;100.00;100973.19;4788520;29;20034;-77
2021/10/04 06:37:28;;;;;;;31.48;3.50;;;;;;;12.48;100.00;100975.47;4802425;29;20039;-77
2021/10/04 06:39:53;;;;;;;26.08;3.05;;;;;;;12.44;100.00;100977.75;4786175;29;20046;-78
2021/10/04 06:42:19;;;;;;;29.90;3.95;;;;;;;12.53;100.00;100990.00;4782694;29;20188;-78
2021/10/04 06:44:44;;;;;;;25.77;3.30;;;;;;;12.56;100.00;100989.59;4767260;30;20051;-77
2021/10/04 06:47:11;;;;;;;31.05;3.47;;;;;;;12.54;100.00;100980.88;4782695;29;20039;-77
2021/10/04 06:49:36;;;;;;;25.65;3.28;;;;;;;12.61;100.00;100984.38;4801417;29;20031;-78
2021/10/04 06:52:03;;;;;;;22.58;3.70;;;;;;;12.63;100.00;100984.19;4769169;29;20351;-77
2021/10/04 06:54:29;;;;;;;36.95;4.20;;;;;;;12.63;100.00;100978.81;4773446;29;20118;-77
2021/10/04 06:56:54;;;;;;;27.35;3.35;;;;;;;12.65;100.00;100999.16;4804538;29;20055;-77
2021/10/04 06:59:20;;;;;;;33.30;4.68;;;;;;;12.62;100.00;100996.88;4800632;29;20387;-77
2021/10/04 07:01:45;;;;;;;28.88;4.15;;;;;;;12.72;100.00;101009.97;4801597;29;20449;-77
2021/10/04 07:04:11;;;;;;;29.00;3.50;;;;;;;12.73;100.00;101005.38;4773764;29;20046;-77
2021/10/04 07:06:36;;;;;;;26.08;4.03;;;;;;;12.75;100.00;101012.25;4779218;29;20069;-77
2021/10/04 07:09:03;;;;;;;24.60;3.60;;;;;;;12.78;100.00;101013.66;4788450;29;20046;-77
2021/10/04 07:11:28;;;;;;;21.52;3.33;;;;;;;12.70;100.00;101002.03;4782164;29;20348;-77
2021/10/04 07:13:56;;;;;;;20.27;3.22;;;;;;;12.74;100.00;101021.34;4786107;29;20049;-78
2021/10/04 07:16:22;;;;;;;30.02;4.38;;;;;;;12.78;100.00;101037.97;4779665;29;20046;-77
2021/10/04 07:18:48;;;;;;;24.38;3.78;;;;;;;12.74;100.00;101028.63;4774911;29;20054;-78
2021/10/04 07:21:14;;;;;;;24.30;3.15;;;;;;;12.81;100.00;101040.25;4783630;29;20031;-77
2021/10/04 07:23:40;;;;;;;22.38;3.30;;;;;;;12.80;100.00;101035.91;4800873;29;20110;-77
2021/10/04 07:26:06;;;;;;;25.77;4.22;;;;;;;12.87;100.00;101052.94;4758481;29;20134;-77
2021/10/04 07:28:32;;;;;;;24.33;3.50;;;;;;;12.87;100.00;101055.63;4786559;29;20062;-77
2021/10/04 07:30:58;;;;;;;29.55;3.75;;;;;;;12.91;100.00;101068.53;4798706;29;20378;-77
2021/10/04 07:33:24;;;;;;;23.30;3.60;;;;;;;12.90;100.00;101056.03;4801193;29;20046;-76
2021/10/04 07:35:51;;;;;;;27.77;3.75;;;;;;;12.94;100.00;101062.69;4791439;29;20039;-77
2021/10/04 07:38:19;;;;;;;20.42;3.83;;;;;;;12.93;100.00;101069.13;4802240;29;20117;-77
2021/10/04 07:40:45;;;;;;;28.38;4.38;;;;;;;12.99;100.00;101074.75;4781948;29;20050;-77
2021/10/04 07:43:10;;;;;;;20.98;3.60;;;;;;;12.92;100.00;101053.16;4792672;29;20374;-77
2021/10/04 07:45:36;;;;;;;24.00;3.40;;;;;;;12.99;100.00;101083.69;4801130;29;20438;-77
2021/10/04 07:48:02;;;;;;;20.00;3.63;;;;;;;12.93;100.00;101065.63;4794806;29;20037;-78
2021/10/04 07:50:28;;;;;;;19.92;3.00;;;;;;;12.87;100.00;101063.75;4801783;29;20038;-78
2021/10/04 07:52:53;;;;;;;15.48;2.60;;;;;;;12.97;100.00;101093.88;4803359;29;20359;-78
2021/10/04 07:55:19;;;;;;;16.58;2.92;;;;;;;12.94;100.00;101084.28;4792682;29;20034;-77
2021/10/04 07:57:48;;;;;;;24.67;3.58;;;;;;;12.94;100.00;101087.00;4807403;29;20091;-78
2021/10/04 08:00:15;;;;;;;26.15;3.17;;;;;;;13.01;100.00;101088.88;4797588;29;20023;-78
2021/10/04 08:02:41;;;;;;;25.02;3.13;;;;;;;12.99;100.00;101090.97;4794761;29;20039;-77
2021/10/04 08:05:06;;;;;;;21.88;3.60;;;;;;;13.04;100.00;101094.69;4795322;29;20531;-78
2021/10/04 08:07:32;;;;;;;22.83;3.35;;;;;;;13.04;100.00;101101.97;4809677;29;20129;-77
2021/10/04 08:09:57;;;;;;;17.63;3.92;;;;;;;12.96;100.00;101059.78;4801197;29;20361;-78
2021/10/04 08:12:25;;;;;;;19.40;3.20;;;;;;;13.10;100.00;101093.03;4766360;29;20103;-79
2021/10/04 08:14:51;;;;;;;22.25;2.88;;;;;;;13.07;100.00;101105.06;4809398;29;20039;-78
2021/10/04 08:17:17;;;;;;;22.50;3.88;;;;;;;13.13;100.00;101114.22;4792923;29;20123;-78
2021/10/04 08:19:42;;;;;;;24.52;3.25;;;;;;;13.15;100.00;101104.88;4809389;29;20043;-77
2021/10/04 08:22:08;;;;;;;22.05;3.40;;;;;;;13.25;100.00;101100.97;4789619;29;20038;-77
2021/10/04 08:24:33;;;;;;;18.83;3.45;;;;;;;13.31;100.00;101102.81;4787066;29;20130;-78
2021/10/04 08:26:58;;;;;;;19.88;3.53;;;;;;;13.31;100.00;101094.69;4787786;29;20031;-78
2021/10/04 08:29:24;;;;;;;24.70;3.50;;;;;;;13.42;100.00;101098.66;4777044;30;20078;-78
2021/10/04 08:31:50;;;;;;;25.63;3.50;;;;;;;13.42;100.00;101087.84;4759479;29;20058;-77
2021/10/04 08:34:16;;;;;;;27.85;3.67;;;;;;;13.36;100.00;101093.03;4786447;29;20389;-77
2021/10/04 08:36:42;;;;;;;18.48;3.40;;;;;;;13.54;100.00;101099.66;4790585;29;20027;-77
2021/10/04 08:39:07;;;;;;;19.85;3.63;;;;;;;13.59;100.00;101097.16;4781530;29;20046;-78
2021/10/04 08:41:34;;;;;;;19.70;3.33;;;;;;;13.60;100.00;101082.59;4805577;29;20068;-77
2021/10/04 08:44:03;;;;;;;18.00;3.13;;;;;;;13.63;100.00;101082.16;4794416;29;20051;-78
2021/10/04 08:46:29;;;;;;;22.50;3.42;;;;;;;13.67;100.00;101087.97;4783144;29;20039;-79
2021/10/04 08:48:55;;;;;;;24.27;3.10;;;;;;;13.73;100.00;101081.72;4789853;29;20046;-78
2021/10/04 08:51:22;;;;;;;20.90;3.40;;;;;;;13.79;100.00;101076.28;4805708;29;20035;-78
2021/10/04 08:53:48;;;;;;;20.00;3.40;;;;;;;13.94;100.00;101083.28;4790469;29;20031;-78
2021/10/04 08:56:13;;;;;;;19.55;3.15;;;;;;;14.04;100.00;101084.53;4794741;29;20035;-78
2021/10/04 08:58:39;;;;;;;21.88;3.22;;;;;;;13.90;100.00;101038.78;4790007;29;20039;-78
2021/10/04 09:01:06;;;;;;;19.52;3.42;;;;;;;14.02;100.00;101080.38;4801980;29;20045;-78
2021/10/04 09:03:50;;;;;;;20.13;3.20;;;;;;;13.96;100.00;101087.44;4786459;29;20066;-78
2021/10/04 09:06:32;;;;;;;15.65;2.60;;;;;;;13.83;100.00;101092.91;4799060;29;20478;-78
2021/10/04 09:09:05;;;;;;;21.60;3.33;;;;;;;13.67;100.00;101061.75;4801955;29;20055;-78
2021/10/04 09:11:41;;;;;;;20.20;3.95;;;;;;;13.87;100.00;101091.44;4800312;29;20031;-78
2021/10/04 09:14:12;;;;;;;22.30;2.92;;;;;;;14.05;100.00;101085.34;4786156;29;20050;-77
2021/10/04 09:16:57;;;;;;;17.00;2.65;;;;;;;14.18;100.00;101076.34;4805842;29;20562;-78
2021/10/04 09:19:27;;;;;;;15.02;2.72;;;;;;;14.28;100.00;101090.22;4805917;29;20458;-77
2021/10/04 09:22:23;;;;;;;19.83;3.42;;;;;;;14.28;100.00;101087.53;4785000;29;20531;-78
2021/10/04 09:24:58;;;;;;;20.33;2.78;;;;;;;14.26;100.00;101089.59;4792243;29;20039;-77
2021/10/04 09:27:37;;;;;;;10.70;2.10;;;;;;;14.20;100.00;101093.16;4785733;30;20033;-77
2021/10/04 09:30:11;;;;;;;18.40;3.13;;;;;;;14.16;100.00;101100.91;4784120;29;20454;-78
2021/10/04 09:32:45;;;;;;;16.23;2.42;;;;;;;14.02;100.00;101081.19;4786043;29;20084;-78
2021/10/04 09:35:23;;;;;;;14.93;2.65;;;;;;;14.19;100.00;101103.16;4804406;29;20114;-77
2021/10/04 09:38:10;;;;;;;17.38;2.55;;;;;;;14.17;100.00;101094.47;4784646;29;20508;-78
2021/10/04 09:40:56;;;;;;;20.27;2.92;;;;;;;14.23;100.00;101087.31;4809248;29;20042;-77
2021/10/04 09:43:40;;;;;;;14.95;3.00;;;;;;;14.39;100.00;101096.81;4808144;29;20062;-78
2021/10/04 09:46:07;;;;;;;16.88;2.30;;;;;;;14.38;100.00;101090.59;4810690;29;20474;-77
2021/10/04 09:48:34;;;;;;;14.93;2.50;;;;;;;14.59;100.00;101100.28;4781394;29;20054;-77
2021/10/04 09:51:18;;;;;;;10.95;2.33;;;;;;;14.52;100.00;101105.72;4804361;29;20045;-77
2021/10/04 09:54:08;;;;;;;15.83;2.60;;;;;;;14.57;100.00;101126.75;4764899;29;20054;-77
2021/10/04 09:56:35;;;;;;;12.55;2.63;;;;;;;14.60;100.00;101130.88;4791916;29;20070;-77
2021/10/04 09:59:00;;;;;;;16.45;2.42;;;;;;;14.65;100.00;101125.66;4801145;29;20096;-77
2021/10/04 10:01:26;;;;;;;19.38;2.78;;;;;;;14.64;100.00;101126.72;4783048;29;20031;-77
2021/10/04 10:03:52;;;;;;;19.63;3.05;;;;;;;14.62;100.00;101134.22;4771427;29;20032;-77
2021/10/04 10:06:18;;;;;;;12.38;2.08;;;;;;;14.60;100.00;101129.00;4770014;29;20043;-77
2021/10/04 10:08:45;;;;;;;16.88;2.97;;;;;;;14.54;100.00;101130.72;4786601;29;20023;-77
2021/10/04 10:11:17;;;;;;;17.73;3.20;;;;;;;14.49;100.00;101124.25;4794087;29;20100;-77
2021/10/04 10:13:44;;;;;;;16.08;3.13;;;;;;;14.45;100.00;101117.63;4784385;29;20041;-77
2021/10/04 10:16:16;;;;;;;12.68;2.53;;;;;;;14.37;100.00;101125.97;4794104;29;20039;-76
2021/10/04 10:18:59;;;;;;;16.75;3.00;;;;;;;14.30;100.00;101126.00;4788919;30;20130;-77
2021/10/04 10:21:27;;;;;;;11.68;2.58;;;;;;;14.45;100.00;101145.53;4774899;30;20130;-77
2021/10/04 10:23:52;;;;;;;20.58;3.00;;;;;;;14.46;100.00;101141.75;4774937;30;20039;-77
2021/10/04 10:26:39;;;;;;;19.58;3.08;;;;;;;14.42;100.00;101121.59;4775256;29;20485;-77
2021/10/04 10:29:15;;;;;;;21.13;3.17;;;;;;;14.51;100.00;101139.28;4803222;29;20045;-77
2021/10/04 10:31:50;;;;;;;14.57;2.70;;;;;;;14.49;100.00;101143.22;4789923;29;20335;-77
2021/10/04 10:34:21;;;;;;;;;;;;;;;14.46;100.00;101152.59;4801855;29;20121;-77
2021/10/04 10:36:58;;;;;;;18.88;3.00;;;;;;;14.50;100.00;101169.22;4802740;29;19964;-77
2021/10/04 10:39:42;;;;;;;16.83;2.95;;;;;;;14.49;100.00;101167.59;4801848;29;20545;-77
2021/10/04 10:42:34;;;;;;;19.73;2.87;;;;;;;14.46;100.00;101170.72;4783201;29;20466;-77
2021/10/04 10:45:00;;;;;;;13.80;2.50;;;;;;;14.48;100.00;101176.75;4802935;29;20031;-77
2021/10/04 10:47:35;;;;;;;21.05;3.03;;;;;;;14.47;100.00;101178.66;4802432;29;20034;-77
2021/10/04 10:50:29;;;;;;;18.30;2.80;;;;;;;14.48;100.00;101176.75;4789257;29;20030;-77
2021/10/04 10:52:55;;;;;;;16.45;2.80;;;;;;;14.45;100.00;101180.72;4790364;29;20069;-77
2021/10/04 10:55:20;;;;;;;16.98;2.40;;;;;;;14.46;100.00;101168.84;4809474;29;20066;-77
2021/10/04 10:57:48;;;;;;;16.67;3.30;;;;;;;14.49;100.00;101165.69;4814876;29;20046;-77
2021/10/04 11:00:19;;;;;;;15.32;3.10;;;;;;;14.40;100.00;101164.28;4810539;29;20122;-77
2021/10/04 11:02:52;;;;;;;13.98;2.53;;;;;;;14.38;100.00;101166.38;4807854;29;20145;-77
2021/10/04 11:05:38;;;;;;;15.45;2.55;;;;;;;14.38;100.00;101165.56;4805493;29;20027;-77
2021/10/04 11:08:05;;;;;;;17.77;2.47;;;;;;;14.31;100.00;101155.59;4788639;29;20031;-77
2021/10/04 11:10:30;;;;;;;15.07;2.78;;;;;;;14.36;100.00;101176.59;4782989;29;20039;-77
2021/10/04 11:13:15;;;;;;;14.23;3.10;;;;;;;14.32;100.00;101173.50;4786715;29;20041;-77